Time;durP1;ratioP1;P1;durP2;ratioP2;P2;SDS_P1;SDS_P2;PMS_P1;PMS_P2;Temp;Humidity;BMP_temperature;BMP_pressure;BME280_temperature;BME280_humidity;BME280_pressure;Samples;Min_cycle;Max_cycle;Signal;HPM_P1;HPM_P2
2023/03/14 00:00:50;;;;;;;0.30;0.30;;;;;;;1.39;68.59;97380.00;5004440;28;20512;-58
2023/03/14 00:03:17;;;;;;;0.30;0.30;;;;;;;1.36;68.45;97377.06;4987329;28;20117;-56
2023/03/14 00:05:44;;;;;;;0.40;0.40;;;;;;;1.38;67.56;97370.19;4987791;28;20058;-72
2023/03/14 00:08:12;;;;;;;0.40;0.40;;;;;;;1.27;68.69;97373.44;4986057;28;20449;-57
2023/03/14 00:10:39;;;;;;;0.38;0.38;;;;;;;1.27;68.65;97371.50;4987152;28;20050;-58
2023/03/14 00:13:06;;;;;;;0.30;0.30;;;;;;;1.32;68.47;97371.41;4987183;28;20148;-73
2023/03/14 00:15:34;;;;;;;0.30;0.30;;;;;;;1.25;68.09;97365.53;4987220;28;20054;-57
2023/03/14 00:18:01;;;;;;;0.30;0.30;;;;;;;1.14;68.05;97347.75;4987069;28;20058;-69
2023/03/14 00:20:28;;;;;;;0.30;0.30;;;;;;;1.04;67.57;97304.31;5001918;28;20073;-72
2023/03/14 00:22:54;;;;;;;0.40;0.40;;;;;;;0.97;67.47;97298.47;5001573;28;20108;-57
2023/03/14 00:25:21;;;;;;;0.30;0.30;;;;;;;0.76;67.51;97278.16;4987010;28;20073;-72
2023/03/14 00:27:50;;;;;;;0.35;0.35;;;;;;;0.89;66.45;97296.44;5001800;28;20065;-58
2023/03/14 00:30:17;;;;;;;0.30;0.30;;;;;;;0.71;67.33;97264.59;4986844;28;20054;-57
2023/03/14 00:32:44;;;;;;;0.30;0.30;;;;;;;1.08;69.01;97348.97;4987187;28;20069;-58
2023/03/14 00:35:10;;;;;;;0.40;0.40;;;;;;;1.16;69.47;97351.00;4986896;28;20912;-56
2023/03/14 00:37:37;;;;;;;0.30;0.30;;;;;;;1.18;69.71;97343.34;4986849;28;20113;-71
2023/03/14 00:40:06;;;;;;;0.30;0.30;;;;;;;1.40;68.34;97340.69;4987524;28;20502;-73
2023/03/14 00:42:33;;;;;;;0.30;0.30;;;;;;;0.59;68.64;97215.25;5016413;28;20076;-73
2023/03/14 00:45:01;;;;;;;0.40;0.40;;;;;;;1.31;69.52;97326.13;5026698;28;20432;-57
2023/03/14 00:47:28;;;;;;;0.30;0.30;;;;;;;1.38;68.18;97323.81;5024442;28;20057;-58
2023/03/14 00:49:54;;;;;;;0.30;0.30;;;;;;;1.33;68.51;97329.38;5026203;28;20060;-57
2023/03/14 00:52:21;;;;;;;0.30;0.30;;;;;;;0.85;68.42;97251.81;5025676;28;20722;-71
2023/03/14 00:54:47;;;;;;;0.30;0.30;;;;;;;1.21;68.62;97315.44;5024558;28;20148;-57
2023/03/14 00:57:14;;;;;;;0.30;0.30;;;;;;;1.26;68.80;97307.16;5025854;28;20107;-59
2023/03/14 00:59:40;;;;;;;0.30;0.30;;;;;;;1.15;68.71;97289.38;5026091;28;20458;-72
2023/03/14 01:02:07;;;;;;;0.40;0.40;;;;;;;1.23;69.09;97313.19;5025761;28;20057;-59
2023/03/14 01:04:34;;;;;;;0.40;0.40;;;;;;;1.21;69.56;97298.25;5023830;28;20065;-72
2023/03/14 01:07:01;;;;;;;0.30;0.30;;;;;;;1.05;68.79;97305.94;5024483;28;20057;-58
2023/03/14 01:09:27;;;;;;;0.30;0.30;;;;;;;0.78;69.28;97277.84;5023982;28;20060;-72
2023/03/14 01:11:54;;;;;;;0.40;0.40;;;;;;;1.00;69.10;97297.84;5024426;28;20511;-58
2023/03/14 01:14:21;;;;;;;0.40;0.40;;;;;;;0.46;69.21;97215.25;5026385;28;20057;-73
2023/03/14 01:16:47;;;;;;;0.40;0.40;;;;;;;0.95;69.22;97289.78;5024502;28;20595;-72
2023/03/14 01:19:14;;;;;;;0.30;0.30;;;;;;;0.89;69.62;97293.72;5024736;28;20054;-72
2023/03/14 01:21:40;;;;;;;0.30;0.30;;;;;;;0.68;69.45;97248.88;5040185;28;20128;-70
2023/03/14 01:24:09;;;;;;;0.38;0.38;;;;;;;0.90;69.35;97286.34;5025439;28;20496;-59
2023/03/14 01:26:36;;;;;;;0.30;0.30;;;;;;;0.56;69.88;97226.75;5025218;28;20076;-72
2023/03/14 01:29:03;;;;;;;0.30;0.30;;;;;;;1.03;69.61;97285.53;5040003;28;20578;-58
2023/03/14 01:31:30;;;;;;;0.30;0.30;;;;;;;0.27;69.31;97177.19;5025207;28;20129;-57
2023/03/14 01:33:57;;;;;;;0.30;0.30;;;;;;;0.89;69.80;97285.53;5024420;28;20137;-58
2023/03/14 01:36:24;;;;;;;0.30;0.30;;;;;;;0.87;69.62;97281.50;5040041;28;20065;-57
2023/03/14 01:38:50;;;;;;;0.32;0.32;;;;;;;0.90;70.32;97280.91;5024800;28;20590;-58
2023/03/14 01:41:22;;;;;;;0.35;0.35;;;;;;;0.20;69.67;97171.34;5024987;28;20049;-71
2023/03/14 01:43:50;;;;;;;0.40;0.40;;;;;;;0.78;70.11;97272.38;5007074;28;20057;-57
2023/03/14 01:46:22;;;;;;;0.30;0.30;;;;;;;0.26;69.88;97221.88;5005335;28;20093;-70
2023/03/14 01:49:23;;;;;;;0.30;0.30;;;;;;;0.61;70.27;97273.00;5004850;28;20063;-58
2023/03/14 01:52:06;;;;;;;0.30;0.30;;;;;;;0.51;70.52;97262.28;4987284;28;20081;-57
2023/03/14 01:54:46;;;;;;;0.30;0.30;;;;;;;0.40;70.80;97260.84;5004759;28;20085;-59
2023/03/14 01:57:39;;;;;;;0.30;0.30;;;;;;;0.27;71.45;97258.91;5005098;28;20058;-57
2023/03/14 02:00:12;;;;;;;0.30;0.30;;;;;;;0.33;71.14;97263.16;5019981;28;20054;-71
2023/03/14 02:02:45;;;;;;;0.30;0.30;;;;;;;0.28;71.38;97252.34;5005008;28;20050;-57
2023/03/14 02:05:15;;;;;;;0.30;0.30;;;;;;;0.32;71.59;97253.38;5004327;28;20139;-58
2023/03/14 02:07:57;;;;;;;0.30;0.30;;;;;;;0.20;72.12;97255.78;5004627;28;20077;-58
2023/03/14 02:10:27;;;;;;;0.25;0.25;;;;;;;0.21;71.99;97251.94;5004409;28;20066;-57
2023/03/14 02:12:56;;;;;;;0.30;0.30;;;;;;;0.07;71.92;97229.31;5004508;28;20598;-57
2023/03/14 02:15:23;;;;;;;0.30;0.30;;;;;;;0.15;71.47;97233.25;5004568;28;20100;-72
2023/03/14 02:17:51;;;;;;;0.30;0.30;;;;;;;-0.06;71.27;97181.06;4993730;28;20112;-67
2023/03/14 02:20:36;;;;;;;0.30;0.30;;;;;;;0.36;71.46;97248.94;4984667;28;20165;-57
2023/03/14 02:23:03;;;;;;;0.30;0.30;;;;;;;-0.14;70.69;97168.13;4984890;28;20147;-70
2023/03/14 02:25:33;;;;;;;0.30;0.30;;;;;;;0.34;70.16;97240.25;4999830;28;20058;-69
2023/03/14 02:28:01;;;;;;;0.30;0.30;;;;;;;0.23;70.05;97238.00;4984927;28;20602;-58
2023/03/14 02:30:30;;;;;;;0.30;0.30;;;;;;;0.25;70.17;97242.06;4985122;28;20540;-70
2023/03/14 02:33:02;;;;;;;0.30;0.30;;;;;;;0.32;70.58;97237.03;4985092;28;20133;-57
2023/03/14 02:35:34;;;;;;;0.30;0.30;;;;;;;0.34;70.86;97226.63;4999928;28;20124;-72
2023/03/14 02:38:07;;;;;;;0.40;0.40;;;;;;;0.24;69.57;97228.75;4984936;28;20050;-58
2023/03/14 02:40:34;;;;;;;0.30;0.30;;;;;;;0.11;70.00;97252.13;4984614;28;20054;-68
2023/03/14 02:43:00;;;;;;;0.30;0.30;;;;;;;0.09;70.62;97237.16;5019925;28;20050;-71
2023/03/14 02:45:35;;;;;;;0.30;0.30;;;;;;;-0.11;70.54;97224.69;5023892;28;20097;-70
2023/03/14 02:48:10;;;;;;;0.30;0.30;;;;;;;-0.08;71.47;97243.19;5023427;28;20538;-71
2023/03/14 02:50:38;;;;;;;0.30;0.30;;;;;;;-0.18;71.92;97233.28;5023703;28;20488;-71
2023/03/14 02:53:04;;;;;;;0.30;0.30;;;;;;;-0.16;72.12;97230.25;5023841;28;20142;-60
2023/03/14 02:55:31;;;;;;;0.30;0.30;;;;;;;-0.23;72.75;97235.25;5023892;28;20143;-58
2023/03/14 02:57:58;;;;;;;0.30;0.30;;;;;;;-0.26;73.46;97236.66;5023721;28;20058;-71
2023/03/14 03:00:25;;;;;;;0.30;0.30;;;;;;;-0.30;73.25;97234.84;5023615;28;20606;-58
2023/03/14 03:02:52;;;;;;;0.30;0.30;;;;;;;-0.23;73.89;97243.41;5023684;28;20218;-71
2023/03/14 03:05:18;;;;;;;0.30;0.30;;;;;;;-0.21;74.04;97246.66;5023321;28;20065;-57
2023/03/14 03:07:45;;;;;;;0.30;0.30;;;;;;;-0.71;73.17;97165.84;5024018;28;20127;-60
2023/03/14 03:10:12;;;;;;;0.30;0.30;;;;;;;-0.15;73.24;97240.84;5023892;28;20073;-72
2023/03/14 03:12:38;;;;;;;0.30;0.30;;;;;;;-0.32;72.88;97194.28;5024095;28;20137;-58
2023/03/14 03:15:05;;;;;;;0.30;0.30;;;;;;;-0.53;72.81;97165.00;5024146;28;20049;-73
2023/03/14 03:17:32;;;;;;;0.30;0.30;;;;;;;-0.09;72.43;97215.16;5026525;28;20562;-72
2023/03/14 03:19:59;;;;;;;0.30;0.30;;;;;;;-0.06;72.81;97240.94;5025821;28;20084;-58
2023/03/14 03:22:25;;;;;;;0.30;0.30;;;;;;;0.03;72.42;97237.25;5027416;28;20153;-72
2023/03/14 03:24:52;;;;;;;0.30;0.30;;;;;;;0.04;72.49;97246.25;5025607;28;20130;-71
2023/03/14 03:27:18;;;;;;;0.30;0.30;;;;;;;0.00;72.45;97239.78;5027359;28;20618;-73
2023/03/14 03:29:45;;;;;;;0.30;0.30;;;;;;;-0.07;72.93;97245.59;5027123;28;20065;-72
2023/03/14 03:32:12;;;;;;;0.30;0.30;;;;;;;-0.13;73.04;97240.53;5027749;28;20563;-57
2023/03/14 03:34:38;;;;;;;0.30;0.30;;;;;;;-0.10;72.40;97242.66;5026880;28;20053;-58
2023/03/14 03:37:05;;;;;;;0.30;0.30;;;;;;;-0.10;72.84;97240.75;5027636;28;20060;-57
2023/03/14 03:39:31;;;;;;;0.30;0.30;;;;;;;-0.59;72.68;97174.34;5026883;28;20049;-71
2023/03/14 03:41:58;;;;;;;0.30;0.30;;;;;;;-0.43;72.04;97181.16;5024030;28;20068;-57
2023/03/14 03:44:24;;;;;;;0.30;0.30;;;;;;;-0.36;72.02;97192.47;5006844;28;20136;-58
2023/03/14 03:46:52;;;;;;;0.30;0.30;;;;;;;-0.14;72.12;97233.47;5008011;28;20149;-57
2023/03/14 03:49:18;;;;;;;0.30;0.30;;;;;;;-0.10;72.43;97250.84;5007460;28;20046;-71
2023/03/14 03:51:45;;;;;;;0.30;0.30;;;;;;;-0.05;71.78;97242.59;5007755;28;20108;-71
2023/03/14 03:54:11;;;;;;;0.30;0.30;;;;;;;-0.13;73.57;97246.78;5008996;28;20552;-72
2023/03/14 03:56:38;;;;;;;0.30;0.30;;;;;;;-0.09;71.87;97241.56;5010662;28;20141;-71
2023/03/14 03:59:05;;;;;;;0.30;0.30;;;;;;;-0.45;71.90;97167.03;5007566;28;20570;-57
2023/03/14 04:01:31;;;;;;;0.30;0.30;;;;;;;-0.04;72.48;97233.31;5007324;28;20053;-70
2023/03/14 04:03:58;;;;;;;0.30;0.30;;;;;;;-0.59;72.84;97149.88;5007039;28;20057;-58
2023/03/14 04:06:25;;;;;;;0.30;0.30;;;;;;;-0.10;71.88;97234.50;5005183;28;20497;-57
2023/03/14 04:08:53;;;;;;;0.30;0.30;;;;;;;-0.28;72.65;97244.31;5006852;28;20054;-58
2023/03/14 04:11:19;;;;;;;0.30;0.30;;;;;;;-0.25;72.23;97240.19;5006999;28;20050;-70
2023/03/14 04:13:46;;;;;;;0.25;0.25;;;;;;;-0.24;71.84;97230.94;5006714;28;20506;-72
2023/03/14 04:16:17;;;;;;;0.30;0.30;;;;;;;-0.24;71.64;97222.75;5005002;28;20429;-58
2023/03/14 04:18:44;;;;;;;0.30;0.30;;;;;;;-0.56;70.99;97198.22;5006272;28;20157;-69
2023/03/14 04:21:10;;;;;;;0.30;0.30;;;;;;;-0.46;71.38;97193.44;5006819;28;20155;-71
2023/03/14 04:23:37;;;;;;;0.30;0.30;;;;;;;-0.32;71.98;97216.06;5006511;28;20133;-57
2023/03/14 04:26:04;;;;;;;0.30;0.30;;;;;;;-0.56;71.99;97171.03;5006475;28;20483;-72
2023/03/14 04:28:30;;;;;;;0.30;0.30;;;;;;;-0.68;71.93;97162.53;5006161;28;20103;-58
2023/03/14 04:30:57;;;;;;;0.30;0.30;;;;;;;-0.35;71.99;97213.16;5006631;28;20631;-72
2023/03/14 04:33:24;;;;;;;0.30;0.30;;;;;;;-0.47;71.56;97196.44;5006840;28;20046;-74
2023/03/14 04:35:53;;;;;;;0.30;0.30;;;;;;;-0.27;72.13;97212.47;5021135;28;20584;-72
2023/03/14 04:38:20;;;;;;;0.30;0.30;;;;;;;-1.36;72.58;97025.50;5006659;28;20053;-58
2023/03/14 04:40:47;;;;;;;0.30;0.30;;;;;;;-0.30;73.75;97207.63;5000299;28;20097;-70
2023/03/14 04:43:14;;;;;;;0.30;0.30;;;;;;;-0.45;72.36;97167.03;4995819;28;20058;-58
2023/03/14 04:45:43;;;;;;;0.30;0.30;;;;;;;-0.25;73.36;97208.34;5006345;28;20050;-70
2023/03/14 04:48:10;;;;;;;0.30;0.30;;;;;;;-0.47;72.45;97186.38;5006305;28;20112;-71
2023/03/14 04:50:37;;;;;;;0.25;0.25;;;;;;;-0.30;73.37;97196.75;5005670;28;20057;-58
2023/03/14 04:53:04;;;;;;;0.30;0.30;;;;;;;-0.31;73.18;97178.78;5006199;28;20115;-71
2023/03/14 04:55:32;;;;;;;0.30;0.30;;;;;;;-0.10;72.75;97234.50;5020553;28;20547;-72
2023/03/14 04:57:59;;;;;;;0.30;0.30;;;;;;;-0.45;72.15;97167.88;5006163;28;20050;-57
2023/03/14 05:00:25;;;;;;;0.30;0.30;;;;;;;0.09;72.23;97221.66;5002074;28;20050;-71
2023/03/14 05:02:52;;;;;;;0.30;0.30;;;;;;;0.23;71.58;97227.13;5001371;28;20097;-72
2023/03/14 05:05:19;;;;;;;0.30;0.30;;;;;;;0.28;71.08;97236.03;5000937;28;21084;-72
2023/03/14 05:07:46;;;;;;;0.30;0.30;;;;;;;0.31;70.91;97223.69;4986472;28;20054;-57
2023/03/14 05:10:13;;;;;;;0.30;0.30;;;;;;;0.43;71.43;97219.38;5000366;28;20117;-72
2023/03/14 05:12:39;;;;;;;0.30;0.30;;;;;;;0.52;70.79;97225.72;4995820;28;20509;-73
2023/03/14 05:15:07;;;;;;;0.30;0.30;;;;;;;0.65;70.21;97219.50;4985566;28;20058;-57
2023/03/14 05:17:34;;;;;;;0.30;0.30;;;;;;;0.86;70.27;97222.63;4986441;28;20061;-72
2023/03/14 05:20:01;;;;;;;0.30;0.30;;;;;;;0.87;69.41;97211.41;4985617;28;20101;-59
2023/03/14 05:22:28;;;;;;;0.30;0.30;;;;;;;1.05;69.06;97218.66;4986025;28;20504;-70
2023/03/14 05:24:56;;;;;;;0.30;0.30;;;;;;;1.19;67.96;97219.44;4984211;28;20050;-57
2023/03/14 05:27:23;;;;;;;0.30;0.30;;;;;;;0.89;68.15;97151.94;4986027;28;20446;-57
2023/03/14 05:29:49;;;;;;;0.40;0.40;;;;;;;1.39;67.04;97205.34;4985278;28;20050;-58
2023/03/14 05:32:16;;;;;;;0.40;0.40;;;;;;;1.60;65.68;97221.28;5000429;28;20116;-72
2023/03/14 05:34:43;;;;;;;0.40;0.40;;;;;;;1.74;65.04;97225.56;4985681;28;20093;-69
2023/03/14 05:37:09;;;;;;;0.40;0.40;;;;;;;1.20;65.41;97143.88;5000579;28;20077;-71
2023/03/14 05:39:36;;;;;;;0.30;0.30;;;;;;;1.28;65.00;97103.03;4984719;28;20105;-71
2023/03/14 05:42:02;;;;;;;0.40;0.40;;;;;;;2.15;65.44;97220.69;4985700;28;20438;-71
2023/03/14 05:44:29;;;;;;;0.40;0.40;;;;;;;2.41;64.77;97234.53;5017167;28;20061;-70
2023/03/14 05:46:56;;;;;;;0.35;0.35;;;;;;;2.57;64.41;97216.59;5039871;28;20081;-58
2023/03/14 05:49:22;;;;;;;0.40;0.40;;;;;;;2.74;62.95;97217.47;5024745;28;20059;-69
2023/03/14 05:51:49;;;;;;;0.40;0.40;;;;;;;3.01;62.50;97221.91;5023153;28;20556;-58
2023/03/14 05:54:16;;;;;;;0.40;0.40;;;;;;;3.18;61.13;97200.06;5024733;28;20053;-58
2023/03/14 05:56:42;;;;;;;0.40;0.40;;;;;;;2.87;59.63;97141.91;5024303;28;20503;-72
2023/03/14 05:59:09;;;;;;;0.40;0.40;;;;;;;3.56;58.53;97217.50;5024523;28;20104;-72
2023/03/14 06:01:36;;;;;;;0.40;0.40;;;;;;;3.73;57.62;97212.03;5024311;28;20064;-70
2023/03/14 06:04:03;;;;;;;0.40;0.40;;;;;;;3.65;57.66;97210.09;5039488;28;20499;-58
2023/03/14 06:06:29;;;;;;;0.40;0.40;;;;;;;3.30;58.31;97170.16;4992724;28;20046;-71
2023/03/14 06:08:56;;;;;;;0.40;0.40;;;;;;;3.50;59.34;97157.75;4985098;28;20508;-72
2023/03/14 06:11:22;;;;;;;0.40;0.40;;;;;;;3.93;59.42;97200.44;4984644;28;20050;-58
2023/03/14 06:13:50;;;;;;;0.40;0.40;;;;;;;4.14;59.42;97220.56;4984810;28;20128;-72
2023/03/14 06:16:17;;;;;;;0.40;0.40;;;;;;;3.88;59.24;97143.06;4984649;28;20116;-58
2023/03/14 06:18:46;;;;;;;0.40;0.40;;;;;;;4.25;59.33;97197.16;4984686;28;20500;-70
2023/03/14 06:21:12;;;;;;;0.40;0.40;;;;;;;4.61;59.56;97215.94;4999340;28;20046;-58
2023/03/14 06:23:39;;;;;;;0.50;0.50;;;;;;;4.54;58.47;97158.84;4984765;28;20078;-59
2023/03/14 06:26:06;;;;;;;0.40;0.40;;;;;;;5.01;58.06;97213.69;4984887;28;20069;-72
2023/03/14 06:28:32;;;;;;;0.50;0.50;;;;;;;5.19;58.75;97215.19;4985048;28;20047;-59
2023/03/14 06:31:00;;;;;;;0.50;0.50;;;;;;;5.40;58.37;97216.03;4985230;28;20515;-70
2023/03/14 06:33:26;;;;;;;0.47;0.47;;;;;;;4.57;59.39;97218.53;4985193;28;20181;-71
2023/03/14 06:35:53;;;;;;;0.40;0.40;;;;;;;3.78;62.28;97220.09;4999256;28;20508;-57
2023/03/14 06:38:20;;;;;;;0.40;0.40;;;;;;;4.01;62.10;97213.34;4984763;28;20049;-70
2023/03/14 06:40:46;;;;;;;0.50;0.50;;;;;;;0.95;60.84;96774.44;4984362;28;20194;-56
2023/03/14 06:43:13;;;;;;;0.40;0.40;;;;;;;3.43;61.67;97162.91;5007981;28;20513;-60
2023/03/14 06:45:40;;;;;;;0.38;0.38;;;;;;;3.58;62.42;97220.75;5003315;28;20060;-61
2023/03/14 06:48:06;;;;;;;0.50;0.50;;;;;;;4.24;61.85;97327.16;5003963;28;20062;-60
2023/03/14 06:50:33;;;;;;;0.50;0.50;;;;;;;4.46;59.22;97220.00;5002825;28;20153;-58
2023/03/14 06:53:00;;;;;;;0.50;0.50;;;;;;;4.26;58.98;97198.78;5006876;28;20506;-72
2023/03/14 06:55:26;;;;;;;0.50;0.50;;;;;;;4.66;58.94;97219.28;5005412;28;20046;-60
2023/03/14 06:57:53;;;;;;;0.50;0.50;;;;;;;3.56;60.12;97061.44;5005129;28;20054;-67
2023/03/14 07:00:20;;;;;;;0.50;0.50;;;;;;;3.81;59.90;97063.31;5007149;28;20512;-57
2023/03/14 07:02:46;;;;;;;0.50;0.50;;;;;;;4.48;60.77;97182.09;5006124;28;20160;-58
2023/03/14 07:05:13;;;;;;;0.50;0.50;;;;;;;4.74;60.01;97151.00;5007702;28;20092;-63
2023/03/14 07:07:40;;;;;;;0.50;0.50;;;;;;;5.09;59.02;97193.63;5006898;28;20046;-57
2023/03/14 07:10:08;;;;;;;0.47;0.47;;;;;;;5.11;57.34;97167.44;5006647;28;20054;-58
2023/03/14 07:12:35;;;;;;;0.50;0.50;;;;;;;5.75;55.77;97198.97;5007661;28;20090;-68
2023/03/14 07:15:02;;;;;;;0.50;0.50;;;;;;;5.96;54.88;97163.25;5006974;28;20048;-62
2023/03/14 07:17:43;;;;;;;0.50;0.50;;;;;;;6.28;54.25;97145.94;5006600;28;20168;-69
2023/03/14 07:20:10;;;;;;;0.50;0.50;;;;;;;6.55;53.15;97150.81;5005171;28;20123;-60
2023/03/14 07:22:37;;;;;;;0.60;0.60;;;;;;;6.88;52.76;97137.78;5006252;28;20512;-57
2023/03/14 07:25:04;;;;;;;0.60;0.60;;;;;;;7.30;51.51;97174.94;5006998;28;20057;-59
2023/03/14 07:27:31;;;;;;;0.60;0.60;;;;;;;7.15;51.84;97117.78;5006820;28;20053;-61
2023/03/14 07:29:57;;;;;;;0.70;0.70;;;;;;;6.45;52.22;97032.94;5021730;28;20056;-63
2023/03/14 07:32:24;;;;;;;0.60;0.60;;;;;;;7.44;51.16;97153.34;5005683;28;20046;-60
2023/03/14 07:34:51;;;;;;;0.60;0.60;;;;;;;7.23;50.49;97108.59;5002362;28;20065;-69
2023/03/14 07:37:18;;;;;;;0.60;0.60;;;;;;;7.96;49.93;97155.25;5006589;28;20440;-63
2023/03/14 07:39:44;;;;;;;0.60;0.60;;;;;;;8.18;49.60;97210.69;5005687;28;20046;-62
2023/03/14 07:42:11;;;;;;;0.70;0.70;;;;;;;8.34;49.30;97141.78;5005125;28;20053;-61
2023/03/14 07:44:38;;;;;;;0.70;0.70;;;;;;;8.50;48.32;97128.81;5015950;28;20080;-64
2023/03/14 07:47:04;;;;;;;0.68;0.68;;;;;;;6.81;47.23;96839.44;5017785;28;20073;-68
2023/03/14 07:49:32;;;;;;;0.70;0.70;;;;;;;8.89;47.47;97141.63;5005813;28;20481;-58
2023/03/14 07:51:58;;;;;;;0.70;0.70;;;;;;;8.78;46.17;97143.34;5006182;28;20131;-60
2023/03/14 07:54:25;;;;;;;0.68;0.68;;;;;;;8.36;46.69;97040.13;5020603;28;20600;-60
2023/03/14 07:56:52;;;;;;;0.75;0.75;;;;;;;8.79;45.95;97053.78;5005043;28;20085;-62
2023/03/14 07:59:19;;;;;;;0.70;0.70;;;;;;;9.45;45.89;97126.41;5006264;28;20139;-61
2023/03/14 08:01:45;;;;;;;0.70;0.70;;;;;;;9.55;45.29;97069.75;5006689;28;20053;-60
2023/03/14 08:04:12;;;;;;;0.77;0.77;;;;;;;8.76;43.86;97026.91;5006234;28;20049;-60
2023/03/14 08:06:39;;;;;;;0.80;0.80;;;;;;;8.23;43.60;96980.66;5006399;28;20069;-59
2023/03/14 08:09:05;;;;;;;0.70;0.70;;;;;;;8.68;43.77;97124.53;4987753;28;20307;-58
2023/03/14 08:11:32;;;;;;;0.70;0.70;;;;;;;8.02;44.97;97112.47;4990496;28;20264;-57
2023/03/14 08:13:59;;;;;;;0.70;0.70;;;;;;;7.61;45.19;97097.94;5006160;28;20053;-57
2023/03/14 08:16:25;;;;;;;0.60;0.60;;;;;;;8.25;44.26;97110.78;5006035;28;20143;-62
2023/03/14 08:18:52;;;;;;;0.70;0.70;;;;;;;8.58;43.57;97109.28;5005416;28;20430;-57
2023/03/14 08:21:19;;;;;;;0.60;0.60;;;;;;;7.76;43.10;97026.66;5005371;28;20060;-62
2023/03/14 08:23:46;;;;;;;0.70;0.70;;;;;;;8.03;41.26;97042.38;4986513;28;20176;-63
2023/03/14 08:26:12;;;;;;;0.73;0.73;;;;;;;7.67;40.31;96953.19;4981226;28;20054;-59
2023/03/14 08:28:39;;;;;;;0.70;0.70;;;;;;;7.34;39.29;96842.47;5005919;28;20078;-59
2023/03/14 08:31:06;;;;;;;0.70;0.70;;;;;;;9.26;39.12;97100.69;5005537;28;20492;-66
2023/03/14 08:33:33;;;;;;;0.80;0.80;;;;;;;9.73;39.27;97093.84;5005673;28;20058;-68
2023/03/14 08:36:00;;;;;;;0.73;0.73;;;;;;;9.82;39.55;97086.13;5006092;28;20060;-61
2023/03/14 08:38:28;;;;;;;0.80;0.80;;;;;;;9.91;38.99;97067.31;5005585;28;20053;-61
2023/03/14 08:40:59;;;;;;;0.80;0.80;;;;;;;10.13;38.70;97080.44;5006186;28;20485;-61
2023/03/14 08:43:27;;;;;;;0.80;0.80;;;;;;;10.10;38.79;97064.56;5004653;28;20120;-62
2023/03/14 08:45:58;;;;;;;0.90;0.90;;;;;;;9.80;38.05;96939.06;5003065;28;20057;-65
2023/03/14 08:48:24;;;;;;;0.90;0.90;;;;;;;10.07;38.68;96956.56;5004617;28;20042;-64
2023/03/14 08:50:51;;;;;;;0.90;0.90;;;;;;;10.95;37.24;97068.81;5005357;28;20050;-68
2023/03/14 08:53:18;;;;;;;0.90;0.90;;;;;;;10.81;38.44;97065.81;5003831;28;20061;-63
2023/03/14 08:55:45;;;;;;;0.88;0.88;;;;;;;10.41;38.61;97063.56;5005342;28;20057;-62
2023/03/14 08:58:12;;;;;;;0.98;0.98;;;;;;;9.62;38.18;96871.59;5002467;28;20513;-61
2023/03/14 09:00:40;;;;;;;0.90;0.90;;;;;;;10.95;38.39;97061.31;5002171;28;20058;-64
2023/03/14 09:03:06;;;;;;;0.90;0.90;;;;;;;10.86;37.50;97051.66;5016119;28;20057;-59
2023/03/14 09:05:34;;;;;;;0.90;0.90;;;;;;;10.79;37.88;96985.84;4986717;28;20058;-63
2023/03/14 09:08:01;;;;;;;1.00;1.00;;;;;;;11.38;36.64;97007.28;4995655;28;20498;-58
2023/03/14 09:10:28;;;;;;;1.00;1.00;;;;;;;11.49;36.70;97031.19;4979794;28;20129;-58
2023/03/14 09:12:54;;;;;;;0.90;0.90;;;;;;;11.42;36.70;96974.84;4977991;28;20141;-58
2023/03/14 09:15:21;;;;;;;1.00;1.00;;;;;;;11.57;36.24;97001.59;4977922;28;20053;-61
2023/03/14 09:17:48;;;;;;;0.90;0.90;;;;;;;10.19;36.40;96914.88;4980456;28;20061;-59
2023/03/14 09:20:15;;;;;;;1.00;1.00;;;;;;;10.42;36.70;96904.53;4977561;28;20424;-57
2023/03/14 09:22:41;;;;;;;1.00;1.00;;;;;;;11.37;36.15;96950.19;4978735;28;20157;-58
2023/03/14 09:25:09;;;;;;;0.93;0.93;;;;;;;11.92;36.37;97004.78;4976014;28;20570;-57
2023/03/14 09:27:36;;;;;;;0.90;0.90;;;;;;;12.13;35.49;96993.91;4980766;28;20508;-61
2023/03/14 09:30:03;;;;;;;1.00;1.00;;;;;;;12.39;34.88;96999.34;4988676;28;20685;-60
2023/03/14 09:32:31;;;;;;;1.00;1.00;;;;;;;12.31;34.56;96989.34;4975001;28;20139;-58
2023/03/14 09:34:58;;;;;;;1.00;1.00;;;;;;;11.95;35.34;96987.38;4978727;28;20151;-62
2023/03/14 09:37:24;;;;;;;1.00;1.00;;;;;;;11.85;35.51;96976.97;4980792;28;20139;-59
2023/03/14 09:39:51;;;;;;;1.00;1.00;;;;;;;12.11;35.37;96977.63;4982864;28;20053;-58
2023/03/14 09:42:22;;;;;;;1.00;1.00;;;;;;;12.25;34.68;96951.97;4975890;28;20094;-65
2023/03/14 09:45:00;;;;;;;1.00;1.00;;;;;;;12.20;34.56;96899.59;4976136;28;20061;-67
2023/03/14 09:47:28;;;;;;;1.00;1.00;;;;;;;12.40;34.66;96903.69;4976031;28;20057;-62
2023/03/14 09:49:54;;;;;;;1.15;1.15;;;;;;;12.85;35.24;96917.09;4977108;28;20062;-61
2023/03/14 09:52:29;;;;;;;1.10;1.10;;;;;;;12.82;34.10;96892.84;4977621;28;20532;-67
2023/03/14 09:54:59;;;;;;;1.23;1.23;;;;;;;13.26;34.73;96946.34;4977312;28;20054;-57
2023/03/14 09:57:27;;;;;;;1.10;1.10;;;;;;;12.86;34.33;96926.25;4977200;28;20167;-66
2023/03/14 09:59:59;;;;;;;1.00;1.00;;;;;;;13.05;34.13;96954.59;4977417;28;20050;-60
2023/03/14 10:02:34;;;;;;;1.20;1.20;;;;;;;11.27;34.04;96590.44;4978141;28;20061;-65
2023/03/14 10:05:01;;;;;;;1.20;1.20;;;;;;;13.34;32.97;96959.09;4977745;28;20050;-59
2023/03/14 10:07:32;;;;;;;1.10;1.10;;;;;;;13.46;32.76;96914.28;4977221;28;20065;-66
2023/03/14 10:10:00;;;;;;;1.10;1.10;;;;;;;12.90;34.02;96916.72;4977111;28;20061;-65
2023/03/14 10:12:35;;;;;;;1.10;1.10;;;;;;;12.79;33.97;96977.03;4977583;28;20054;-66
2023/03/14 10:15:07;;;;;;;1.10;1.10;;;;;;;11.74;34.23;96798.47;4976860;28;20050;-64
2023/03/14 10:17:48;;;;;;;1.10;1.10;;;;;;;13.25;34.16;96911.38;4977353;28;20058;-59
2023/03/14 10:20:37;;;;;;;1.20;1.20;;;;;;;13.82;33.16;96900.44;4971588;28;20050;-59
2023/03/14 10:23:28;;;;;;;1.30;1.30;;;;;;;13.94;32.68;96898.06;4957129;28;20050;-63
2023/03/14 10:26:05;;;;;;;1.20;1.20;;;;;;;13.72;32.78;96890.09;4956539;28;20940;-60
2023/03/14 10:28:37;;;;;;;1.10;1.10;;;;;;;13.43;32.87;96800.97;4972949;28;20054;-60
2023/03/14 10:31:04;;;;;;;1.20;1.20;;;;;;;13.62;32.35;96838.78;4956443;28;20145;-64
2023/03/14 10:33:34;;;;;;;1.30;1.30;;;;;;;13.98;32.55;96865.47;4957785;28;20613;-61
2023/03/14 10:36:14;;;;;;;1.20;1.20;;;;;;;14.16;32.71;96859.91;4957147;28;20112;-59
2023/03/14 10:38:42;;;;;;;1.40;1.40;;;;;;;14.02;32.21;96813.31;4957208;28;20046;-61
2023/03/14 10:41:26;;;;;;;1.33;1.33;;;;;;;14.36;32.63;96847.19;4961381;28;20128;-65
2023/03/14 10:43:57;;;;;;;1.25;1.25;;;;;;;13.76;33.69;96868.59;4972110;28;20594;-60
2023/03/14 10:46:26;;;;;;;1.13;1.13;;;;;;;14.01;34.46;96836.00;5000986;28;20127;-57
2023/03/14 10:48:53;;;;;;;1.27;1.27;;;;;;;14.35;32.35;96848.38;5000757;28;20069;-61
2023/03/14 10:51:27;;;;;;;1.20;1.20;;;;;;;14.06;33.16;96813.34;4994540;28;20100;-63
2023/03/14 10:54:04;;;;;;;1.40;1.40;;;;;;;14.56;32.99;96821.25;5002011;28;20441;-64
2023/03/14 10:56:36;;;;;;;1.40;1.40;;;;;;;14.47;32.04;96797.78;5000992;28;20602;-61
2023/03/14 10:59:06;;;;;;;1.30;1.30;;;;;;;13.81;32.66;96773.56;4995451;28;20495;-60
2023/03/14 11:01:59;;;;;;;1.40;1.40;;;;;;;14.29;32.69;96781.09;5003787;28;20413;-59
2023/03/14 11:04:38;;;;;;;1.20;1.20;;;;;;;14.53;32.77;96801.75;4984970;28;20046;-56
2023/03/14 11:07:26;;;;;;;1.30;1.30;;;;;;;13.11;33.26;96672.16;5000249;28;20317;-60
2023/03/14 11:09:59;;;;;;;1.10;1.10;;;;;;;13.86;33.30;96778.72;5007469;28;20088;-59
2023/03/14 11:12:29;;;;;;;1.20;1.20;;;;;;;14.45;33.24;96784.25;4999943;28;20062;-59
2023/03/14 11:15:05;;;;;;;1.20;1.20;;;;;;;14.87;32.25;96772.19;5003031;28;20046;-60
2023/03/14 11:17:43;;;;;;;1.35;1.35;;;;;;;15.12;32.24;96761.72;5004013;28;20057;-57
2023/03/14 11:20:50;;;;;;;1.20;1.20;;;;;;;15.01;31.39;96708.78;5001366;28;20104;-58
2023/03/14 11:23:22;;;;;;;1.45;1.45;;;;;;;15.36;31.82;96755.19;5001855;28;20078;-57
2023/03/14 11:26:24;;;;;;;1.25;1.25;;;;;;;14.84;31.74;96745.13;5003216;28;20045;-60
2023/03/14 11:28:57;;;;;;;1.45;1.45;;;;;;;15.51;31.43;96739.16;4960978;28;20577;-60
2023/03/14 11:31:31;;;;;;;1.30;1.30;;;;;;;14.83;31.43;96626.38;5003052;28;20053;-60
2023/03/14 11:33:58;;;;;;;1.27;1.27;;;;;;;15.41;31.73;96726.88;5006059;28;20054;-61
2023/03/14 11:36:52;;;;;;;1.30;1.30;;;;;;;15.08;31.34;96721.84;5003319;28;20089;-56
2023/03/14 11:39:20;;;;;;;1.40;1.40;;;;;;;15.26;31.63;96711.38;5004264;28;20869;-57
2023/03/14 11:41:50;;;;;;;1.30;1.30;;;;;;;15.30;31.70;96706.56;5006187;28;20081;-58
2023/03/14 11:44:36;;;;;;;1.48;1.48;;;;;;;15.77;31.29;96696.66;5006055;28;20381;-62
2023/03/14 11:47:28;;;;;;;1.38;1.38;;;;;;;15.54;31.05;96637.84;5006194;28;20417;-59